createdAt,value
2023-02-01T00:03:44.748Z,101586.91
2023-02-01T00:07:56.318Z,101590.38
2023-02-01T00:12:07.888Z,101590.06
2023-02-01T00:16:24.948Z,101584.59
2023-02-01T00:20:36.473Z,101574.75
2023-02-01T00:24:47.965Z,101564.25
2023-02-01T00:29:00.207Z,101576.91
2023-02-01T00:33:12.092Z,101565.09
2023-02-01T00:37:24.194Z,101577.75
2023-02-01T00:41:36.048Z,101566.91
2023-02-01T00:45:48.006Z,101578.09
2023-02-01T00:49:59.500Z,101551.94
2023-02-01T00:54:12.573Z,101547.63
2023-02-01T00:58:27.543Z,101553.59
2023-02-01T01:02:39.161Z,101562.75
2023-02-01T01:06:50.705Z,101556.75
2023-02-01T01:11:11.777Z,101577.41
2023-02-01T01:15:23.290Z,101560.44
2023-02-01T01:19:34.784Z,101550.44
2023-02-01T01:23:47.710Z,101557.75
2023-02-01T01:27:59.321Z,101556.44
2023-02-01T01:32:10.774Z,101547.78
2023-02-01T01:36:23.431Z,101542.66
2023-02-01T01:40:34.925Z,101534.81
2023-02-01T01:45:06.308Z,101533.47
2023-02-01T01:49:22.765Z,101535.50
2023-02-01T01:53:48.886Z,101539.47
2023-02-01T01:58:07.148Z,101532.66
2023-02-01T02:02:18.952Z,101532.81
2023-02-01T02:06:42.739Z,101520.34
2023-02-01T02:11:00.684Z,101523.00
2023-02-01T02:15:14.971Z,101512.88
2023-02-01T02:19:51.301Z,101508.88
2023-02-01T02:24:10.409Z,101510.84
2023-02-01T02:28:48.308Z,101499.53
2023-02-01T02:33:35.802Z,101507.84
2023-02-01T02:38:15.423Z,101500.34
2023-02-01T02:42:53.218Z,101506.84
2023-02-01T02:47:26.159Z,101489.88
2023-02-01T02:52:21.881Z,101496.69
2023-02-01T02:56:53.233Z,101488.53
2023-02-01T03:01:24.344Z,101488.56
2023-02-01T03:05:37.994Z,101487.75
2023-02-01T03:09:50.707Z,101481.59
2023-02-01T03:14:07.473Z,101460.94
2023-02-01T03:18:36.690Z,101433.63
2023-02-01T03:22:50.977Z,101440.13
2023-02-01T03:27:10.046Z,101461.94
2023-02-01T03:31:22.689Z,101461.44
2023-02-01T03:35:43.410Z,101461.59
2023-02-01T03:40:02.041Z,101465.06
2023-02-01T03:44:27.822Z,101468.53
2023-02-01T03:48:41.188Z,101459.88
2023-02-01T03:53:22.559Z,101477.28
2023-02-01T03:57:38.953Z,101469.94
2023-02-01T04:01:51.332Z,101452.50
2023-02-01T04:06:03.048Z,101468.47
2023-02-01T04:10:17.434Z,101464.66
2023-02-01T04:14:30.266Z,101461.53
2023-02-01T04:18:41.825Z,101458.53
2023-02-01T04:22:53.419Z,101436.56
2023-02-01T04:27:05.286Z,101467.97
2023-02-01T04:31:44.109Z,101463.81
2023-02-01T04:35:55.613Z,101455.00
2023-02-01T04:40:07.821Z,101473.59
2023-02-01T04:44:19.741Z,101464.16
2023-02-01T04:48:31.295Z,101444.66
2023-02-01T04:52:42.838Z,101463.75
2023-02-01T04:56:54.458Z,101458.53
2023-02-01T05:01:07.584Z,101463.84
2023-02-01T05:05:19.037Z,101461.94
2023-02-01T05:09:30.587Z,101451.25
2023-02-01T05:13:51.065Z,101466.88
2023-02-01T05:18:02.535Z,101449.56
2023-02-01T05:22:14.016Z,101444.44
2023-02-01T05:26:25.956Z,101449.06
2023-02-01T05:30:38.867Z,101443.09
2023-02-01T05:34:51.483Z,101449.56
2023-02-01T05:39:03.239Z,101443.84
2023-02-01T05:43:14.758Z,101449.38
2023-02-01T05:47:26.250Z,101467.50
2023-02-01T05:51:37.773Z,101472.47
2023-02-01T05:55:49.294Z,101467.31
2023-02-01T06:00:01.038Z,101467.16
2023-02-01T06:04:12.619Z,101458.97
2023-02-01T06:08:26.543Z,101471.31
2023-02-01T06:12:38.280Z,101464.78
2023-02-01T06:16:49.795Z,101467.28
2023-02-01T06:21:01.766Z,101471.25
2023-02-01T06:25:13.369Z,101454.28
2023-02-01T06:29:24.922Z,101453.75
2023-02-01T06:33:37.395Z,101466.53
2023-02-01T06:37:48.933Z,101467.00
2023-02-01T06:42:00.460Z,101462.03
2023-02-01T06:46:15.799Z,101492.69
2023-02-01T06:50:28.157Z,101480.19
2023-02-01T06:54:39.739Z,101487.66
2023-02-01T06:58:51.268Z,101482.13
2023-02-01T07:03:03.160Z,101486.34
2023-02-01T07:07:15.478Z,101479.53
2023-02-01T07:11:28.939Z,101488.38
2023-02-01T07:15:40.957Z,101488.72
2023-02-01T07:19:52.489Z,101484.59
2023-02-01T07:24:04.295Z,101499.84
2023-02-01T07:28:16.069Z,101493.53
2023-02-01T07:32:27.582Z,101502.03
2023-02-01T07:36:39.465Z,101502.75
2023-02-01T07:40:51.061Z,101487.28
2023-02-01T07:45:19.997Z,101484.13
2023-02-01T07:49:32.271Z,101481.81
2023-02-01T07:53:46.167Z,101492.91
2023-02-01T07:57:59.005Z,101472.63
2023-02-01T08:02:10.480Z,101489.09
2023-02-01T08:06:23.558Z,101495.63
2023-02-01T08:10:36.098Z,101503.22
2023-02-01T08:14:47.628Z,101494.66
2023-02-01T08:18:59.224Z,101508.50
2023-02-01T08:23:10.768Z,101515.69
2023-02-01T08:27:22.258Z,101502.38
2023-02-01T08:31:34.391Z,101518.75
2023-02-01T08:35:45.958Z,101511.34
2023-02-01T08:39:57.537Z,101493.31
2023-02-01T08:44:09.055Z,101491.03
2023-02-01T08:48:20.561Z,101502.38
2023-02-01T08:52:32.074Z,101507.09
2023-02-01T08:56:43.622Z,101502.41
2023-02-01T09:00:55.176Z,101484.00
2023-02-01T09:05:07.245Z,101480.28
2023-02-01T09:09:18.794Z,101471.94
2023-02-01T09:13:31.051Z,101485.19
2023-02-01T09:17:44.475Z,101466.44
2023-02-01T09:21:56.507Z,101490.47
2023-02-01T09:26:08.290Z,101468.50
2023-02-01T09:30:20.211Z,101457.41
2023-02-01T09:34:32.290Z,101466.56
2023-02-01T09:38:52.426Z,101466.31
2023-02-01T09:43:26.500Z,101476.56
2023-02-01T09:47:47.546Z,101480.59
2023-02-01T09:52:01.487Z,101468.47
2023-02-01T09:56:18.658Z,101475.00
2023-02-01T10:00:36.131Z,101471.22
2023-02-01T10:04:48.960Z,101475.41
2023-02-01T10:09:06.677Z,101484.84
2023-02-01T10:13:55.530Z,101473.84
2023-02-01T10:18:30.233Z,101469.50
2023-02-01T10:23:13.749Z,101468.78
2023-02-01T10:27:24.245Z,101454.84
2023-02-01T10:31:38.898Z,101471.63
2023-02-01T10:36:13.083Z,101454.38
2023-02-01T10:40:27.000Z,101450.50
2023-02-01T10:44:46.484Z,101437.97
2023-02-01T10:49:01.777Z,101458.88
2023-02-01T10:53:19.658Z,101451.59
2023-02-01T10:57:32.837Z,101464.66
2023-02-01T11:01:47.574Z,101467.50
2023-02-01T11:05:59.653Z,101436.91
2023-02-01T11:10:39.358Z,101439.81
2023-02-01T11:14:51.507Z,101421.69
2023-02-01T11:19:03.927Z,101420.69
2023-02-01T11:23:27.803Z,101415.97
2023-02-01T11:27:49.493Z,101398.50
2023-02-01T11:32:05.754Z,101389.22
2023-02-01T11:36:21.693Z,101417.59
2023-02-01T11:40:40.287Z,101420.81
2023-02-01T11:44:52.285Z,101410.03
2023-02-01T11:49:26.228Z,101421.00
2023-02-01T11:54:11.856Z,101423.34
2023-02-01T11:58:37.827Z,101405.03
2023-02-01T12:03:01.636Z,101408.88
2023-02-01T12:07:45.821Z,101394.19
2023-02-01T12:12:26.049Z,101383.94
2023-02-01T12:17:22.183Z,101416.53
2023-02-01T12:21:53.925Z,101390.97
2023-02-01T12:26:30.466Z,101400.59
2023-02-01T12:31:14.249Z,101403.56
2023-02-01T12:35:49.296Z,101387.59
2023-02-01T12:40:19.603Z,101395.75
2023-02-01T12:44:37.345Z,101397.44
2023-02-01T12:49:20.168Z,101379.28
2023-02-01T12:53:47.839Z,101378.03
2023-02-01T12:58:13.969Z,101362.28
2023-02-01T13:02:38.828Z,101368.47
2023-02-01T13:07:18.056Z,101375.75
2023-02-01T13:11:34.972Z,101392.63
2023-02-01T13:15:55.155Z,101373.81
2023-02-01T13:20:31.415Z,101386.78
2023-02-01T13:24:48.540Z,101377.91
2023-02-01T13:29:07.514Z,101382.69
2023-02-01T13:33:54.405Z,101376.69
2023-02-01T13:38:43.626Z,101390.97
2023-02-01T13:42:59.430Z,101405.16
2023-02-01T13:47:24.993Z,101394.44
2023-02-01T13:51:41.933Z,101401.63
2023-02-01T13:56:08.455Z,101395.44
2023-02-01T14:00:39.404Z,101394.44
2023-02-01T14:04:51.745Z,101392.09
2023-02-01T14:09:09.461Z,101406.97
2023-02-01T14:13:39.028Z,101415.22
2023-02-01T14:17:51.163Z,101422.69
2023-02-01T14:22:21.222Z,101421.28
2023-02-01T14:26:36.095Z,101409.53
2023-02-01T14:30:49.407Z,101415.44
2023-02-01T14:35:03.624Z,101413.78
2023-02-01T14:39:38.796Z,101394.00
2023-02-01T14:43:52.275Z,101407.38
2023-02-01T14:48:07.068Z,101415.81
2023-02-01T14:52:22.629Z,101416.38
2023-02-01T14:56:35.574Z,101419.88
2023-02-01T15:00:57.256Z,101398.66
2023-02-01T15:05:33.903Z,101411.28
2023-02-01T15:09:48.806Z,101414.41
2023-02-01T15:14:01.662Z,101399.34
2023-02-01T15:18:19.607Z,101397.63
2023-02-01T15:22:32.076Z,101388.31
2023-02-01T15:26:43.888Z,101396.47
2023-02-01T15:31:01.291Z,101398.47
2023-02-01T15:35:56.114Z,101412.63
2023-02-01T15:40:10.396Z,101413.28
2023-02-01T15:44:44.142Z,101426.47
2023-02-01T15:48:56.046Z,101436.72
2023-02-01T15:53:19.054Z,101444.94
2023-02-01T15:57:36.273Z,101447.31
2023-02-01T16:01:48.927Z,101455.78
2023-02-01T16:06:02.642Z,101455.59
2023-02-01T16:10:28.418Z,101460.53
2023-02-01T16:14:41.433Z,101476.19
2023-02-01T16:18:53.371Z,101460.31
2023-02-01T16:23:05.973Z,101476.38
2023-02-01T16:27:17.659Z,101478.44
2023-02-01T16:31:32.581Z,101469.75
2023-02-01T16:35:44.198Z,101471.84
2023-02-01T16:39:55.785Z,101465.91
2023-02-01T16:44:07.947Z,101478.09
2023-02-01T16:48:37.449Z,101476.81
2023-02-01T16:52:49.032Z,101474.22
2023-02-01T16:57:00.789Z,101460.00
2023-02-01T17:01:17.147Z,101472.22
2023-02-01T17:05:29.865Z,101470.13
2023-02-01T17:09:41.595Z,101474.22
2023-02-01T17:13:53.530Z,101462.28
2023-02-01T17:18:06.523Z,101442.44
2023-02-01T17:22:18.802Z,101473.38
2023-02-01T17:26:30.772Z,101490.09
2023-02-01T17:30:42.681Z,101509.69
2023-02-01T17:34:54.272Z,101511.78
2023-02-01T17:39:06.737Z,101501.25
2023-02-01T17:43:25.086Z,101506.66
2023-02-01T17:47:36.774Z,101534.47
2023-02-01T17:51:50.496Z,101525.03
2023-02-01T17:56:02.306Z,101529.09
2023-02-01T18:00:15.060Z,101534.84
2023-02-01T18:04:26.944Z,101520.88
2023-02-01T18:08:40.046Z,101512.00
2023-02-01T18:12:51.615Z,101514.69
2023-02-01T18:17:03.300Z,101497.84
2023-02-01T18:21:17.531Z,101499.91
2023-02-01T18:25:34.116Z,101489.25
2023-02-01T18:29:45.763Z,101509.50
2023-02-01T18:33:59.107Z,101522.25
2023-02-01T18:38:13.543Z,101522.53
2023-02-01T18:42:25.265Z,101570.31
2023-02-01T18:46:37.099Z,101552.84
2023-02-01T18:50:57.683Z,101581.19
2023-02-01T18:55:10.908Z,101555.69
2023-02-01T18:59:22.660Z,101572.06
2023-02-01T19:03:41.735Z,101562.31
2023-02-01T19:07:56.981Z,101558.78
2023-02-01T19:12:08.688Z,101570.13
2023-02-01T19:16:20.374Z,101576.78
2023-02-01T19:20:32.489Z,101557.06
2023-02-01T19:24:44.297Z,101559.00
2023-02-01T19:29:00.177Z,101541.47
2023-02-01T19:33:14.079Z,101566.63
2023-02-01T19:37:27.791Z,101511.34
2023-02-01T19:41:51.782Z,101545.34
2023-02-01T19:46:11.708Z,101536.97
2023-02-01T19:50:23.391Z,101529.16
2023-02-01T19:54:35.291Z,101537.25
2023-02-01T19:58:52.624Z,101527.34
2023-02-01T20:03:13.260Z,101538.06
2023-02-01T20:07:25.507Z,101532.00
2023-02-01T20:11:41.222Z,101538.75
2023-02-01T20:15:57.791Z,101540.25
2023-02-01T20:20:10.070Z,101541.81
2023-02-01T20:24:21.728Z,101561.31
2023-02-01T20:28:35.026Z,101566.00
2023-02-01T20:32:49.550Z,101576.44
2023-02-01T20:37:01.172Z,101565.44
2023-02-01T20:41:12.863Z,101567.38
2023-02-01T20:45:25.830Z,101566.38
2023-02-01T20:49:40.354Z,101578.34
2023-02-01T20:53:53.710Z,101575.69
2023-02-01T20:58:05.750Z,101561.56
2023-02-01T21:02:17.317Z,101566.63
2023-02-01T21:06:28.888Z,101604.00
2023-02-01T21:10:40.555Z,101591.72
2023-02-01T21:14:52.041Z,101604.09
2023-02-01T21:19:03.952Z,101596.53
2023-02-01T21:23:16.750Z,101603.53
2023-02-01T21:27:29.346Z,101567.25
2023-02-01T21:31:43.536Z,101596.06
2023-02-01T21:35:55.534Z,101593.38
2023-02-01T21:40:07.547Z,101572.81
2023-02-01T21:44:19.708Z,101597.00
2023-02-01T21:48:31.428Z,101610.47
2023-02-01T21:53:03.211Z,101612.50
2023-02-01T21:57:14.980Z,101619.59
2023-02-01T22:01:26.679Z,101632.59
2023-02-01T22:05:38.560Z,101602.72
2023-02-01T22:09:50.208Z,101619.22
2023-02-01T22:14:01.848Z,101645.06
2023-02-01T22:18:13.482Z,101638.13
2023-02-01T22:22:25.082Z,101630.59
2023-02-01T22:26:36.846Z,101630.66
2023-02-01T22:30:48.660Z,101663.81
2023-02-01T22:35:01.677Z,101637.66
2023-02-01T22:39:13.355Z,101653.47
2023-02-01T22:43:25.921Z,101666.47
2023-02-01T22:47:37.532Z,101669.97
2023-02-01T22:51:50.889Z,101662.69
2023-02-01T22:56:04.622Z,101671.81
2023-02-01T23:00:16.353Z,101671.16
2023-02-01T23:04:27.904Z,101668.41
2023-02-01T23:08:40.476Z,101673.72
2023-02-01T23:12:52.027Z,101673.25
2023-02-01T23:17:03.575Z,101696.41
2023-02-01T23:21:20.433Z,101692.19
2023-02-01T23:25:32.076Z,101676.97
2023-02-01T23:29:43.689Z,101689.16
2023-02-01T23:33:56.557Z,101700.69
2023-02-01T23:38:08.162Z,101683.41
2023-02-01T23:42:20.657Z,101672.72
2023-02-01T23:46:35.063Z,101693.56
2023-02-01T23:50:46.737Z,101686.19
2023-02-01T23:54:58.699Z,101669.66
2023-02-01T23:59:14.259Z,101671.50
